sensor_id;sensor_type;location;lat;lon;timestamp;temperature;humidity
22984;DHT22;11658;48.908;9.140;2023-04-19T03:01:36;8.90;99.90
22984;DHT22;11658;48.908;9.140;2023-04-19T03:04:02;8.90;99.90
22984;DHT22;11658;48.908;9.140;2023-04-19T03:06:28;8.90;99.90
22984;DHT22;11658;48.908;9.140;2023-04-19T03:08:53;8.90;99.90
22984;DHT22;11658;48.908;9.140;2023-04-19T03:11:19;9.00;99.90
22984;DHT22;11658;48.908;9.140;2023-04-19T03:13:45;9.00;99.90
22984;DHT22;11658;48.908;9.140;2023-04-19T03:16:10;8.90;99.90
22984;DHT22;11658;48.908;9.140;2023-04-19T03:18:36;8.90;99.90
22984;DHT22;11658;48.908;9.140;2023-04-19T03:21:02;8.90;99.90
22984;DHT22;11658;48.908;9.140;2023-04-19T03:23:28;8.90;99.90
22984;DHT22;11658;48.908;9.140;2023-04-19T03:25:54;8.90;99.90
22984;DHT22;11658;48.908;9.140;2023-04-19T03:28:20;8.90;99.90
22984;DHT22;11658;48.908;9.140;2023-04-19T03:30:46;8.90;99.90
22984;DHT22;11658;48.908;9.140;2023-04-19T03:33:11;8.90;99.90
22984;DHT22;11658;48.908;9.140;2023-04-19T03:35:37;8.80;99.90
22984;DHT22;11658;48.908;9.140;2023-04-19T03:38:02;8.80;99.90
22984;DHT22;11658;48.908;9.140;2023-04-19T03:40:31;8.80;99.90
22984;DHT22;11658;48.908;9.140;2023-04-19T03:42:57;8.90;99.90
22984;DHT22;11658;48.908;9.140;2023-04-19T03:45:22;8.90;99.90
22984;DHT22;11658;48.908;9.140;2023-04-19T03:47:48;9.00;99.90
22984;DHT22;11658;48.908;9.140;2023-04-19T03:50:13;9.10;99.90
22984;DHT22;11658;48.908;9.140;2023-04-19T03:52:39;9.10;99.90
22984;DHT22;11658;48.908;9.140;2023-04-19T03:55:05;9.10;99.90
22984;DHT22;11658;48.908;9.140;2023-04-19T03:57:31;9.20;99.90
22984;DHT22;11658;48.908;9.140;2023-04-19T03:59:56;9.20;99.90
22984;DHT22;11658;48.908;9.140;2023-04-19T04:02:22;9.20;99.90
22984;DHT22;11658;48.908;9.140;2023-04-19T04:04:55;9.20;99.90
22984;DHT22;11658;48.908;9.140;2023-04-19T04:07:20;9.20;99.90
22984;DHT22;11658;48.908;9.140;2023-04-19T04:09:48;9.20;99.90
22984;DHT22;11658;48.908;9.140;2023-04-19T04:12:13;9.10;99.90
22984;DHT22;11658;48.908;9.140;2023-04-19T04:14:39;9.10;99.90
22984;DHT22;11658;48.908;9.140;2023-04-19T04:17:04;9.00;99.90
22984;DHT22;11658;48.908;9.140;2023-04-19T04:19:30;8.90;99.90
22984;DHT22;11658;48.908;9.140;2023-04-19T04:21:55;8.70;99.90
22984;DHT22;11658;48.908;9.140;2023-04-19T04:24:21;8.60;99.90
22984;DHT22;11658;48.908;9.140;2023-04-19T04:26:47;8.50;99.90
22984;DHT22;11658;48.908;9.140;2023-04-19T04:29:14;8.50;99.90
22984;DHT22;11658;48.908;9.140;2023-04-19T04:31:40;8.40;99.90
22984;DHT22;11658;48.908;9.140;2023-04-19T04:34:06;8.40;99.90
22984;DHT22;11658;48.908;9.140;2023-04-19T04:36:33;8.50;99.90
22984;DHT22;11658;48.908;9.140;2023-04-19T04:38:59;8.50;99.90
22984;DHT22;11658;48.908;9.140;2023-04-19T04:41:26;8.50;99.90
22984;DHT22;11658;48.908;9.140;2023-04-19T04:43:52;8.50;99.90
22984;DHT22;11658;48.908;9.140;2023-04-19T04:46:18;8.60;99.90
22984;DHT22;11658;48.908;9.140;2023-04-19T04:48:43;8.60;99.90
22984;DHT22;11658;48.908;9.140;2023-04-19T04:51:09;8.50;99.90
22984;DHT22;11658;48.908;9.140;2023-04-19T04:53:35;8.50;99.90
22984;DHT22;11658;48.908;9.140;2023-04-19T04:56:00;8.50;99.90
22984;DHT22;11658;48.908;9.140;2023-04-19T04:58:26;8.60;99.90
22984;DHT22;11658;48.908;9.140;2023-04-19T05:00:51;8.50;99.90
22984;DHT22;11658;48.908;9.140;2023-04-19T05:03:17;8.50;99.90
22984;DHT22;11658;48.908;9.140;2023-04-19T05:05:43;8.50;99.90
22984;DHT22;11658;48.908;9.140;2023-04-19T05:08:08;8.50;99.90
22984;DHT22;11658;48.908;9.140;2023-04-19T05:10:34;8.50;99.90
22984;DHT22;11658;48.908;9.140;2023-04-19T05:13:00;8.50;99.90
22984;DHT22;11658;48.908;9.140;2023-04-19T05:15:26;8.40;99.90
22984;DHT22;11658;48.908;9.140;2023-04-19T05:17:51;8.40;99.90
22984;DHT22;11658;48.908;9.140;2023-04-19T05:20:17;8.40;99.90
22984;DHT22;11658;48.908;9.140;2023-04-19T05:22:42;8.40;99.90
22984;DHT22;11658;48.908;9.140;2023-04-19T05:25:09;8.50;99.90
22984;DHT22;11658;48.908;9.140;2023-04-19T05:27:34;8.50;99.90
22984;DHT22;11658;48.908;9.140;2023-04-19T05:30:00;8.50;99.90
22984;DHT22;11658;48.908;9.140;2023-04-19T05:32:25;8.60;99.90
22984;DHT22;11658;48.908;9.140;2023-04-19T05:34:52;8.70;99.90
22984;DHT22;11658;48.908;9.140;2023-04-19T05:37:17;9.00;99.90
22984;DHT22;11658;48.908;9.140;2023-04-19T05:39:43;9.00;99.90
22984;DHT22;11658;48.908;9.140;2023-04-19T05:42:08;9.00;99.90
22984;DHT22;11658;48.908;9.140;2023-04-19T05:44:34;9.00;99.90
22984;DHT22;11658;48.908;9.140;2023-04-19T05:47:00;9.10;99.90
22984;DHT22;11658;48.908;9.140;2023-04-19T05:49:25;9.00;99.90
22984;DHT22;11658;48.908;9.140;2023-04-19T05:51:51;9.10;99.90
22984;DHT22;11658;48.908;9.140;2023-04-19T05:54:18;9.20;99.90
22984;DHT22;11658;48.908;9.140;2023-04-19T05:56:44;9.20;99.90
22984;DHT22;11658;48.908;9.140;2023-04-19T05:59:09;9.30;99.90
22984;DHT22;11658;48.908;9.140;2023-04-19T06:01:35;9.50;99.90
22984;DHT22;11658;48.908;9.140;2023-04-19T06:04:01;9.60;99.90
22984;DHT22;11658;48.908;9.140;2023-04-19T06:06:27;9.70;99.90
22984;DHT22;11658;48.908;9.140;2023-04-19T06:08:52;9.70;99.90
22984;DHT22;11658;48.908;9.140;2023-04-19T06:11:18;9.50;99.90
22984;DHT22;11658;48.908;9.140;2023-04-19T06:13:44;9.60;99.90
22984;DHT22;11658;48.908;9.140;2023-04-19T06:16:10;9.80;99.90
22984;DHT22;11658;48.908;9.140;2023-04-19T06:18:35;9.90;99.90
22984;DHT22;11658;48.908;9.140;2023-04-19T06:21:01;9.70;99.90
22984;DHT22;11658;48.908;9.140;2023-04-19T06:23:27;10.30;99.90
22984;DHT22;11658;48.908;9.140;2023-04-19T06:25:52;10.50;99.90
22984;DHT22;11658;48.908;9.140;2023-04-19T06:28:18;10.70;99.90
22984;DHT22;11658;48.908;9.140;2023-04-19T06:30:44;10.50;99.90
22984;DHT22;11658;48.908;9.140;2023-04-19T06:33:10;9.80;99.90
22984;DHT22;11658;48.908;9.140;2023-04-19T06:35:35;9.50;99.90
22984;DHT22;11658;48.908;9.140;2023-04-19T06:38:01;9.50;99.90
22984;DHT22;11658;48.908;9.140;2023-04-19T06:40:27;9.50;99.90
22984;DHT22;11658;48.908;9.140;2023-04-19T06:42:56;9.40;99.90
22984;DHT22;11658;48.908;9.140;2023-04-19T06:45:21;9.50;99.90
22984;DHT22;11658;48.908;9.140;2023-04-19T06:47:47;9.70;99.90
22984;DHT22;11658;48.908;9.140;2023-04-19T06:50:12;9.70;99.90
22984;DHT22;11658;48.908;9.140;2023-04-19T06:52:38;9.60;99.90
22984;DHT22;11658;48.908;9.140;2023-04-19T06:55:07;9.50;99.90
22984;DHT22;11658;48.908;9.140;2023-04-19T06:57:33;9.50;99.90
22984;DHT22;11658;48.908;9.140;2023-04-19T06:59:59;9.50;99.90
22984;DHT22;11658;48.908;9.140;2023-04-19T07:02:25;9.60;99.90
22984;DHT22;11658;48.908;9.140;2023-04-19T07:04:50;9.70;99.90
22984;DHT22;11658;48.908;9.140;2023-04-19T07:07:16;9.90;99.90
22984;DHT22;11658;48.908;9.140;2023-04-19T07:09:42;9.90;99.90
22984;DHT22;11658;48.908;9.140;2023-04-19T07:12:07;10.00;99.90
22984;DHT22;11658;48.908;9.140;2023-04-19T07:14:33;10.00;99.90
22984;DHT22;11658;48.908;9.140;2023-04-19T07:16:59;10.10;99.90
22984;DHT22;11658;48.908;9.140;2023-04-19T07:19:25;10.20;99.90
22984;DHT22;11658;48.908;9.140;2023-04-19T07:21:52;10.50;99.90
22984;DHT22;11658;48.908;9.140;2023-04-19T07:24:17;10.60;99.90
22984;DHT22;11658;48.908;9.140;2023-04-19T07:26:43;10.70;99.90
22984;DHT22;11658;48.908;9.140;2023-04-19T07:29:09;10.60;99.90
22984;DHT22;11658;48.908;9.140;2023-04-19T07:31:34;10.70;99.90
22984;DHT22;11658;48.908;9.140;2023-04-19T07:34:01;10.80;99.90
22984;DHT22;11658;48.908;9.140;2023-04-19T07:36:26;11.10;99.90
22984;DHT22;11658;48.908;9.140;2023-04-19T07:38:52;11.30;99.90
22984;DHT22;11658;48.908;9.140;2023-04-19T07:41:17;11.30;99.90
22984;DHT22;11658;48.908;9.140;2023-04-19T07:43:43;11.50;99.90
22984;DHT22;11658;48.908;9.140;2023-04-19T07:46:13;11.50;99.90
22984;DHT22;11658;48.908;9.140;2023-04-19T07:48:43;11.50;99.90
22984;DHT22;11658;48.908;9.140;2023-04-19T07:51:13;11.70;99.90
22984;DHT22;11658;48.908;9.140;2023-04-19T07:53:39;11.80;99.90
22984;DHT22;11658;48.908;9.140;2023-04-19T07:56:06;12.10;99.90
22984;DHT22;11658;48.908;9.140;2023-04-19T07:58:33;12.10;99.90
22984;DHT22;11658;48.908;9.140;2023-04-19T08:00:59;12.40;99.90
22984;DHT22;11658;48.908;9.140;2023-04-19T08:03:25;12.20;99.90
22984;DHT22;11658;48.908;9.140;2023-04-19T08:05:51;12.30;99.90
22984;DHT22;11658;48.908;9.140;2023-04-19T08:08:17;12.20;99.90
22984;DHT22;11658;48.908;9.140;2023-04-19T08:10:43;12.20;99.90
22984;DHT22;11658;48.908;9.140;2023-04-19T08:13:08;11.90;99.90
22984;DHT22;11658;48.908;9.140;2023-04-19T08:15:34;11.60;99.90
22984;DHT22;11658;48.908;9.140;2023-04-19T08:18:00;11.20;99.90
22984;DHT22;11658;48.908;9.140;2023-04-19T08:20:26;11.10;99.90
22984;DHT22;11658;48.908;9.140;2023-04-19T08:22:52;10.90;99.90
22984;DHT22;11658;48.908;9.140;2023-04-19T08:25:18;10.90;99.90
22984;DHT22;11658;48.908;9.140;2023-04-19T08:27:44;10.90;99.90
22984;DHT22;11658;48.908;9.140;2023-04-19T08:30:10;10.90;99.90
22984;DHT22;11658;48.908;9.140;2023-04-19T08:32:36;10.90;99.90
22984;DHT22;11658;48.908;9.140;2023-04-19T08:35:01;10.90;99.90
22984;DHT22;11658;48.908;9.140;2023-04-19T08:37:28;11.00;99.90
22984;DHT22;11658;48.908;9.140;2023-04-19T08:39:53;11.00;99.90
22984;DHT22;11658;48.908;9.140;2023-04-19T08:42:19;11.10;99.90
22984;DHT22;11658;48.908;9.140;2023-04-19T08:44:48;11.30;99.90
22984;DHT22;11658;48.908;9.140;2023-04-19T08:47:14;11.50;99.90
22984;DHT22;11658;48.908;9.140;2023-04-19T08:49:40;11.50;99.90
22984;DHT22;11658;48.908;9.140;2023-04-19T08:52:08;11.40;99.90
22984;DHT22;11658;48.908;9.140;2023-04-19T08:54:35;11.50;99.90
22984;DHT22;11658;48.908;9.140;2023-04-19T08:57:01;11.60;99.90
22984;DHT22;11658;48.908;9.140;2023-04-19T08:59:27;11.80;99.90
22984;DHT22;11658;48.908;9.140;2023-04-19T09:02:01;11.80;99.90
22984;DHT22;11658;48.908;9.140;2023-04-19T09:04:26;11.90;99.90
22984;DHT22;11658;48.908;9.140;2023-04-19T09:06:53;12.10;99.90
22984;DHT22;11658;48.908;9.140;2023-04-19T09:09:24;11.90;99.90
22984;DHT22;11658;48.908;9.140;2023-04-19T09:11:50;11.90;99.90
22984;DHT22;11658;48.908;9.140;2023-04-19T09:14:17;12.10;99.90
22984;DHT22;11658;48.908;9.140;2023-04-19T09:16:43;12.00;99.90
22984;DHT22;11658;48.908;9.140;2023-04-19T09:19:09;12.00;99.90
22984;DHT22;11658;48.908;9.140;2023-04-19T09:21:37;12.10;99.90
22984;DHT22;11658;48.908;9.140;2023-04-19T09:24:03;12.30;99.90
22984;DHT22;11658;48.908;9.140;2023-04-19T09:26:30;12.50;99.90
22984;DHT22;11658;48.908;9.140;2023-04-19T09:29:06;13.10;99.90
22984;DHT22;11658;48.908;9.140;2023-04-19T09:31:34;13.50;99.90
22984;DHT22;11658;48.908;9.140;2023-04-19T09:34:14;13.90;99.90
22984;DHT22;11658;48.908;9.140;2023-04-19T09:36:40;14.20;99.90
22984;DHT22;11658;48.908;9.140;2023-04-19T09:39:06;14.90;99.90
22984;DHT22;11658;48.908;9.140;2023-04-19T09:41:31;15.20;99.90
22984;DHT22;11658;48.908;9.140;2023-04-19T09:44:10;15.00;99.90
22984;DHT22;11658;48.908;9.140;2023-04-19T09:46:37;14.20;99.90
22984;DHT22;11658;48.908;9.140;2023-04-19T09:49:19;14.10;99.90
22984;DHT22;11658;48.908;9.140;2023-04-19T09:51:52;14.60;99.90
22984;DHT22;11658;48.908;9.140;2023-04-19T09:54:21;14.90;99.90
22984;DHT22;11658;48.908;9.140;2023-04-19T09:56:48;14.80;99.90
22984;DHT22;11658;48.908;9.140;2023-04-19T09:59:15;14.40;99.90
22984;DHT22;11658;48.908;9.140;2023-04-19T10:01:47;13.70;99.90
22984;DHT22;11658;48.908;9.140;2023-04-19T10:04:15;13.20;99.90
22984;DHT22;11658;48.908;9.140;2023-04-19T10:06:50;13.00;99.90
22984;DHT22;11658;48.908;9.140;2023-04-19T10:09:20;13.00;99.90
22984;DHT22;11658;48.908;9.140;2023-04-19T10:11:51;13.50;99.90
22984;DHT22;11658;48.908;9.140;2023-04-19T10:14:24;13.40;99.90
22984;DHT22;11658;48.908;9.140;2023-04-19T10:16:50;13.20;99.90
22984;DHT22;11658;48.908;9.140;2023-04-19T10:19:18;13.20;99.90
22984;DHT22;11658;48.908;9.140;2023-04-19T10:21:46;12.90;99.90
22984;DHT22;11658;48.908;9.140;2023-04-19T10:24:13;13.10;99.90
22984;DHT22;11658;48.908;9.140;2023-04-19T10:27:11;13.10;99.90
22984;DHT22;11658;48.908;9.140;2023-04-19T10:32:43;12.80;99.90
22984;DHT22;11658;48.908;9.140;2023-04-19T10:35:20;12.60;99.90
22984;DHT22;11658;48.908;9.140;2023-04-19T10:40:59;12.60;99.90
22984;DHT22;11658;48.908;9.140;2023-04-19T10:43:34;12.50;99.90
22984;DHT22;11658;48.908;9.140;2023-04-19T10:48:50;12.50;99.90
22984;DHT22;11658;48.908;9.140;2023-04-19T10:51:31;12.40;99.90
22984;DHT22;11658;48.908;9.140;2023-04-19T10:54:02;12.30;99.90
22984;DHT22;11658;48.908;9.140;2023-04-19T11:01:44;12.00;99.90
22984;DHT22;11658;48.908;9.140;2023-04-19T11:04:11;12.00;99.90
22984;DHT22;11658;48.908;9.140;2023-04-19T11:07:04;11.90;99.90
22984;DHT22;11658;48.908;9.140;2023-04-19T11:09:39;11.60;99.90
22984;DHT22;11658;48.908;9.140;2023-04-19T11:12:11;11.50;99.90
22984;DHT22;11658;48.908;9.140;2023-04-19T11:14:39;11.60;99.90
22984;DHT22;11658;48.908;9.140;2023-04-19T11:17:19;11.60;99.90
22984;DHT22;11658;48.908;9.140;2023-04-19T11:20:02;11.40;99.90
22984;DHT22;11658;48.908;9.140;2023-04-19T11:22:31;11.30;99.90
22984;DHT22;11658;48.908;9.140;2023-04-19T11:25:24;11.40;99.90
22984;DHT22;11658;48.908;9.140;2023-04-19T11:27:52;11.50;99.90
22984;DHT22;11658;48.908;9.140;2023-04-19T11:30:20;11.50;99.90
22984;DHT22;11658;48.908;9.140;2023-04-19T11:32:53;11.40;99.90
22984;DHT22;11658;48.908;9.140;2023-04-19T11:35:27;11.20;99.90
22984;DHT22;11658;48.908;9.140;2023-04-19T11:37:54;11.20;99.90
22984;DHT22;11658;48.908;9.140;2023-04-19T11:40:22;11.30;99.90
22984;DHT22;11658;48.908;9.140;2023-04-19T11:42:56;11.40;99.90
22984;DHT22;11658;48.908;9.140;2023-04-19T11:47:54;11.10;99.90
22984;DHT22;11658;48.908;9.140;2023-04-19T11:50:36;11.10;99.90
22984;DHT22;11658;48.908;9.140;2023-04-19T11:53:18;11.00;99.90
22984;DHT22;11658;48.908;9.140;2023-04-19T11:55:49;11.00;99.90
22984;DHT22;11658;48.908;9.140;2023-04-19T12:00:50;10.90;99.90
22984;DHT22;11658;48.908;9.140;2023-04-19T12:03:15;11.00;99.90
22984;DHT22;11658;48.908;9.140;2023-04-19T12:05:59;10.80;99.90
22984;DHT22;11658;48.908;9.140;2023-04-19T12:08:37;10.60;99.90
22984;DHT22;11658;48.908;9.140;2023-04-19T12:11:05;10.40;99.90
22984;DHT22;11658;48.908;9.140;2023-04-19T12:13:31;10.30;99.90
22984;DHT22;11658;48.908;9.140;2023-04-19T12:15:57;10.30;99.90
22984;DHT22;11658;48.908;9.140;2023-04-19T12:18:25;10.20;99.90
22984;DHT22;11658;48.908;9.140;2023-04-19T12:20:51;10.10;99.90
22984;DHT22;11658;48.908;9.140;2023-04-19T12:23:18;10.10;99.90
22984;DHT22;11658;48.908;9.140;2023-04-19T12:25:46;10.30;99.90
22984;DHT22;11658;48.908;9.140;2023-04-19T12:28:13;10.20;99.90
22984;DHT22;11658;48.908;9.140;2023-04-19T12:30:39;10.20;99.90
22984;DHT22;11658;48.908;9.140;2023-04-19T12:33:06;10.20;99.90
22984;DHT22;11658;48.908;9.140;2023-04-19T12:35:32;10.30;99.90
22984;DHT22;11658;48.908;9.140;2023-04-19T12:37:58;10.30;99.90
22984;DHT22;11658;48.908;9.140;2023-04-19T12:40:25;10.30;99.90
22984;DHT22;11658;48.908;9.140;2023-04-19T12:42:51;10.30;99.90
22984;DHT22;11658;48.908;9.140;2023-04-19T12:45:18;10.30;99.90
22984;DHT22;11658;48.908;9.140;2023-04-19T12:47:45;10.20;99.90
22984;DHT22;11658;48.908;9.140;2023-04-19T12:50:12;10.50;99.90
22984;DHT22;11658;48.908;9.140;2023-04-19T12:52:38;10.50;99.90
22984;DHT22;11658;48.908;9.140;2023-04-19T12:55:04;10.50;99.90
22984;DHT22;11658;48.908;9.140;2023-04-19T12:57:30;10.50;99.90
22984;DHT22;11658;48.908;9.140;2023-04-19T12:59:56;10.50;99.90
22984;DHT22;11658;48.908;9.140;2023-04-19T13:02:21;10.60;99.90
22984;DHT22;11658;48.908;9.140;2023-04-19T13:04:47;10.60;99.90
22984;DHT22;11658;48.908;9.140;2023-04-19T13:07:13;10.50;99.90
22984;DHT22;11658;48.908;9.140;2023-04-19T13:09:38;10.40;99.90
22984;DHT22;11658;48.908;9.140;2023-04-19T13:12:04;10.50;99.90
22984;DHT22;11658;48.908;9.140;2023-04-19T13:14:30;10.70;99.90
22984;DHT22;11658;48.908;9.140;2023-04-19T13:16:56;11.00;99.90
22984;DHT22;11658;48.908;9.140;2023-04-19T13:19:21;11.10;99.90
22984;DHT22;11658;48.908;9.140;2023-04-19T13:21:47;11.30;99.90
22984;DHT22;11658;48.908;9.140;2023-04-19T13:24:12;11.50;99.90
22984;DHT22;11658;48.908;9.140;2023-04-19T13:26:38;11.60;99.90
22984;DHT22;11658;48.908;9.140;2023-04-19T13:29:05;11.70;99.90
22984;DHT22;11658;48.908;9.140;2023-04-19T13:31:33;11.80;99.90
22984;DHT22;11658;48.908;9.140;2023-04-19T13:33:58;12.00;99.90
22984;DHT22;11658;48.908;9.140;2023-04-19T13:36:25;12.20;99.90
22984;DHT22;11658;48.908;9.140;2023-04-19T13:38:51;12.10;99.90
22984;DHT22;11658;48.908;9.140;2023-04-19T13:41:17;11.90;99.90
22984;DHT22;11658;48.908;9.140;2023-04-19T13:43:42;12.20;99.90
22984;DHT22;11658;48.908;9.140;2023-04-19T13:46:08;12.20;99.90
22984;DHT22;11658;48.908;9.140;2023-04-19T13:48:33;12.40;99.90
22984;DHT22;11658;48.908;9.140;2023-04-19T13:50:59;12.60;99.90
22984;DHT22;11658;48.908;9.140;2023-04-19T13:53:26;12.80;99.90
22984;DHT22;11658;48.908;9.140;2023-04-19T13:55:52;12.70;99.90
22984;DHT22;11658;48.908;9.140;2023-04-19T13:58:18;12.90;99.90
22984;DHT22;11658;48.908;9.140;2023-04-19T14:00:44;13.20;99.90
22984;DHT22;11658;48.908;9.140;2023-04-19T14:03:09;13.40;99.90
22984;DHT22;11658;48.908;9.140;2023-04-19T14:05:36;13.10;99.90
22984;DHT22;11658;48.908;9.140;2023-04-19T14:08:02;13.20;99.90
22984;DHT22;11658;48.908;9.140;2023-04-19T14:10:28;13.40;99.90
22984;DHT22;11658;48.908;9.140;2023-04-19T14:12:53;13.70;99.90
22984;DHT22;11658;48.908;9.140;2023-04-19T14:15:19;13.90;99.90
22984;DHT22;11658;48.908;9.140;2023-04-19T14:17:45;14.10;99.90
22984;DHT22;11658;48.908;9.140;2023-04-19T14:20:11;14.20;99.90
22984;DHT22;11658;48.908;9.140;2023-04-19T14:22:38;14.40;99.90
22984;DHT22;11658;48.908;9.140;2023-04-19T14:25:04;14.50;99.90
22984;DHT22;11658;48.908;9.140;2023-04-19T14:27:30;14.60;99.90
22984;DHT22;11658;48.908;9.140;2023-04-19T14:29:56;14.60;99.90
22984;DHT22;11658;48.908;9.140;2023-04-19T14:32:21;14.70;99.90
22984;DHT22;11658;48.908;9.140;2023-04-19T14:34:47;14.80;99.90
22984;DHT22;11658;48.908;9.140;2023-04-19T14:37:13;14.70;99.90
22984;DHT22;11658;48.908;9.140;2023-04-19T14:39:38;14.70;99.90
22984;DHT22;11658;48.908;9.140;2023-04-19T14:42:04;14.30;99.90
22984;DHT22;11658;48.908;9.140;2023-04-19T14:44:30;14.10;99.90
22984;DHT22;11658;48.908;9.140;2023-04-19T14:46:55;13.90;99.90
22984;DHT22;11658;48.908;9.140;2023-04-19T14:49:21;13.70;99.90
22984;DHT22;11658;48.908;9.140;2023-04-19T14:51:46;13.70;99.90
22984;DHT22;11658;48.908;9.140;2023-04-19T14:54:12;13.80;99.90
22984;DHT22;11658;48.908;9.140;2023-04-19T14:56:38;14.20;99.90
22984;DHT22;11658;48.908;9.140;2023-04-19T14:59:06;14.40;99.90
22984;DHT22;11658;48.908;9.140;2023-04-19T15:01:34;14.80;99.90
22984;DHT22;11658;48.908;9.140;2023-04-19T15:04:00;14.80;99.90
22984;DHT22;11658;48.908;9.140;2023-04-19T15:06:25;14.60;99.90
22984;DHT22;11658;48.908;9.140;2023-04-19T15:08:51;14.20;99.90
22984;DHT22;11658;48.908;9.140;2023-04-19T15:11:17;13.80;99.90
22984;DHT22;11658;48.908;9.140;2023-04-19T15:13:42;13.70;99.90
22984;DHT22;11658;48.908;9.140;2023-04-19T15:16:08;13.40;99.90
22984;DHT22;11658;48.908;9.140;2023-04-19T15:18:34;13.30;99.90
22984;DHT22;11658;48.908;9.140;2023-04-19T15:21:02;13.40;99.90
22984;DHT22;11658;48.908;9.140;2023-04-19T15:23:28;13.60;99.90
22984;DHT22;11658;48.908;9.140;2023-04-19T15:25:54;13.70;99.90
22984;DHT22;11658;48.908;9.140;2023-04-19T15:28:21;13.70;99.90
22984;DHT22;11658;48.908;9.140;2023-04-19T15:30:59;13.70;99.90
22984;DHT22;11658;48.908;9.140;2023-04-19T15:33:25;13.70;99.90
22984;DHT22;11658;48.908;9.140;2023-04-19T15:35:54;13.80;99.90
22984;DHT22;11658;48.908;9.140;2023-04-19T15:38:26;13.80;99.90
22984;DHT22;11658;48.908;9.140;2023-04-19T15:40:53;13.80;99.90
22984;DHT22;11658;48.908;9.140;2023-04-19T15:43:19;13.90;99.90
22984;DHT22;11658;48.908;9.140;2023-04-19T15:45:45;13.90;99.90
22984;DHT22;11658;48.908;9.140;2023-04-19T15:48:11;14.00;99.90
22984;DHT22;11658;48.908;9.140;2023-04-19T15:50:37;14.00;99.90
22984;DHT22;11658;48.908;9.140;2023-04-19T15:53:04;14.00;99.90
22984;DHT22;11658;48.908;9.140;2023-04-19T15:55:30;14.00;99.90
22984;DHT22;11658;48.908;9.140;2023-04-19T15:57:56;14.10;99.90
22984;DHT22;11658;48.908;9.140;2023-04-19T16:00:22;13.80;99.90
22984;DHT22;11658;48.908;9.140;2023-04-19T16:02:47;13.60;99.90
22984;DHT22;11658;48.908;9.140;2023-04-19T16:05:14;13.10;99.90
22984;DHT22;11658;48.908;9.140;2023-04-19T16:07:42;12.80;99.90
22984;DHT22;11658;48.908;9.140;2023-04-19T16:10:08;12.70;99.90
22984;DHT22;11658;48.908;9.140;2023-04-19T16:12:34;12.60;99.90
22984;DHT22;11658;48.908;9.140;2023-04-19T16:15:00;12.50;99.90
22984;DHT22;11658;48.908;9.140;2023-04-19T16:17:25;12.50;99.90
22984;DHT22;11658;48.908;9.140;2023-04-19T16:19:51;12.50;99.90
22984;DHT22;11658;48.908;9.140;2023-04-19T16:22:17;12.50;99.90
22984;DHT22;11658;48.908;9.140;2023-04-19T16:24:42;12.60;99.90
22984;DHT22;11658;48.908;9.140;2023-04-19T16:27:11;12.70;99.90
22984;DHT22;11658;48.908;9.140;2023-04-19T16:29:36;13.20;99.90
22984;DHT22;11658;48.908;9.140;2023-04-19T16:32:03;13.40;99.90
22984;DHT22;11658;48.908;9.140;2023-04-19T16:34:29;13.10;99.90
22984;DHT22;11658;48.908;9.140;2023-04-19T16:36:54;12.90;99.90
22984;DHT22;11658;48.908;9.140;2023-04-19T16:39:20;12.50;99.90
22984;DHT22;11658;48.908;9.140;2023-04-19T16:41:46;12.40;99.90
22984;DHT22;11658;48.908;9.140;2023-04-19T16:44:11;12.20;99.90
22984;DHT22;11658;48.908;9.140;2023-04-19T16:46:37;12.10;99.90
22984;DHT22;11658;48.908;9.140;2023-04-19T16:49:03;11.90;99.90
22984;DHT22;11658;48.908;9.140;2023-04-19T16:51:28;11.60;99.90
22984;DHT22;11658;48.908;9.140;2023-04-19T16:53:54;11.50;99.90
22984;DHT22;11658;48.908;9.140;2023-04-19T16:56:20;11.40;99.90
22984;DHT22;11658;48.908;9.140;2023-04-19T16:58:46;11.30;99.90
22984;DHT22;11658;48.908;9.140;2023-04-19T17:01:12;11.30;99.90
22984;DHT22;11658;48.908;9.140;2023-04-19T17:03:38;11.30;99.90
22984;DHT22;11658;48.908;9.140;2023-04-19T17:06:03;11.20;99.90
22984;DHT22;11658;48.908;9.140;2023-04-19T17:08:29;11.10;99.90
22984;DHT22;11658;48.908;9.140;2023-04-19T17:10:55;11.20;99.90
22984;DHT22;11658;48.908;9.140;2023-04-19T17:13:21;11.20;99.90
22984;DHT22;11658;48.908;9.140;2023-04-19T17:15:47;11.20;99.90
22984;DHT22;11658;48.908;9.140;2023-04-19T17:18:13;11.20;99.90
22984;DHT22;11658;48.908;9.140;2023-04-19T17:20:38;11.20;99.90
22984;DHT22;11658;48.908;9.140;2023-04-19T17:23:04;11.20;99.90
22984;DHT22;11658;48.908;9.140;2023-04-19T17:25:30;11.50;99.90
22984;DHT22;11658;48.908;9.140;2023-04-19T17:27:55;11.20;99.90
22984;DHT22;11658;48.908;9.140;2023-04-19T17:30:21;11.20;99.90
22984;DHT22;11658;48.908;9.140;2023-04-19T17:32:47;11.60;99.90
22984;DHT22;11658;48.908;9.140;2023-04-19T17:35:13;12.00;99.90
22984;DHT22;11658;48.908;9.140;2023-04-19T17:37:39;12.40;99.90
22984;DHT22;11658;48.908;9.140;2023-04-19T17:40:05;12.00;99.90
22984;DHT22;11658;48.908;9.140;2023-04-19T17:42:31;11.50;99.90
22984;DHT22;11658;48.908;9.140;2023-04-19T17:44:56;11.20;99.90
22984;DHT22;11658;48.908;9.140;2023-04-19T17:47:23;11.00;99.90
22984;DHT22;11658;48.908;9.140;2023-04-19T17:49:49;10.80;99.90
22984;DHT22;11658;48.908;9.140;2023-04-19T17:52:14;10.80;99.90
22984;DHT22;11658;48.908;9.140;2023-04-19T17:54:40;10.80;99.90
22984;DHT22;11658;48.908;9.140;2023-04-19T17:57:06;10.70;99.90
22984;DHT22;11658;48.908;9.140;2023-04-19T17:59:31;10.50;99.90
22984;DHT22;11658;48.908;9.140;2023-04-19T18:01:57;10.50;99.90
22984;DHT22;11658;48.908;9.140;2023-04-19T18:04:22;10.40;99.90
22984;DHT22;11658;48.908;9.140;2023-04-19T18:06:48;10.40;99.90
22984;DHT22;11658;48.908;9.140;2023-04-19T18:09:15;10.40;99.90
22984;DHT22;11658;48.908;9.140;2023-04-19T18:11:41;10.30;99.90
22984;DHT22;11658;48.908;9.140;2023-04-19T18:14:06;10.20;99.90
22984;DHT22;11658;48.908;9.140;2023-04-19T18:16:32;10.10;99.90
22984;DHT22;11658;48.908;9.140;2023-04-19T18:18:58;10.00;99.90
22984;DHT22;11658;48.908;9.140;2023-04-19T18:21:23;10.00;99.90
22984;DHT22;11658;48.908;9.140;2023-04-19T18:23:50;9.80;99.90
22984;DHT22;11658;48.908;9.140;2023-04-19T18:26:19;9.70;99.90
22984;DHT22;11658;48.908;9.140;2023-04-19T18:28:46;9.60;99.90
22984;DHT22;11658;48.908;9.140;2023-04-19T18:31:11;9.50;99.90
22984;DHT22;11658;48.908;9.140;2023-04-19T18:33:37;9.40;99.90
22984;DHT22;11658;48.908;9.140;2023-04-19T18:36:04;9.30;99.90
22984;DHT22;11658;48.908;9.140;2023-04-19T18:38:30;9.30;99.90
22984;DHT22;11658;48.908;9.140;2023-04-19T18:40:55;9.30;99.90
22984;DHT22;11658;48.908;9.140;2023-04-19T18:43:21;9.20;99.90
22984;DHT22;11658;48.908;9.140;2023-04-19T18:45:54;9.20;99.90
22984;DHT22;11658;48.908;9.140;2023-04-19T18:48:20;9.10;99.90
22984;DHT22;11658;48.908;9.140;2023-04-19T18:50:46;9.00;99.90
22984;DHT22;11658;48.908;9.140;2023-04-19T18:53:12;9.00;99.90